createdAt,value
2018-03-04T00:00:51.527Z,0.00
2018-03-04T00:01:51.477Z,0.00
2018-03-04T00:02:51.467Z,0.00
2018-03-04T00:03:51.457Z,0.00
2018-03-04T00:04:51.448Z,0.00
2018-03-04T00:05:51.475Z,0.00
2018-03-04T00:06:51.427Z,0.00
2018-03-04T00:07:51.417Z,0.00
2018-03-04T00:08:51.408Z,0.00
2018-03-04T00:09:51.397Z,0.00
2018-03-04T00:10:51.426Z,0.00
2018-03-04T00:11:51.376Z,0.00
2018-03-04T00:12:51.365Z,0.00
2018-03-04T00:13:51.355Z,0.00
2018-03-04T00:14:51.346Z,0.00
2018-03-04T00:15:51.380Z,0.00
2018-03-04T00:16:51.325Z,0.00
2018-03-04T00:17:51.315Z,0.00
2018-03-04T00:18:51.306Z,0.00
2018-03-04T00:19:51.332Z,0.00
2018-03-04T00:20:51.285Z,0.00
2018-03-04T00:21:51.317Z,0.00
2018-03-04T00:22:51.262Z,0.00
2018-03-04T00:23:51.251Z,0.00
2018-03-04T00:24:51.242Z,0.00
2018-03-04T00:25:51.234Z,0.00
2018-03-04T00:26:51.266Z,0.00
2018-03-04T00:27:51.213Z,0.00
2018-03-04T00:28:51.203Z,0.00
2018-03-04T00:29:51.230Z,0.00
2018-03-04T00:30:51.183Z,0.00
2018-03-04T00:31:51.176Z,0.00
2018-03-04T00:32:51.209Z,0.00
2018-03-04T00:33:51.150Z,0.00
2018-03-04T00:34:51.138Z,0.00
2018-03-04T00:35:51.128Z,0.00
2018-03-04T00:36:51.118Z,0.00
2018-03-04T00:37:51.146Z,0.00
2018-03-04T00:38:51.096Z,0.00
2018-03-04T00:39:51.087Z,0.00
2018-03-04T00:40:51.075Z,0.00
2018-03-04T00:41:51.068Z,0.00
2018-03-04T00:42:51.100Z,0.00
2018-03-04T00:43:51.047Z,0.00
2018-03-04T00:44:51.079Z,0.00
2018-03-04T00:45:51.022Z,0.00
2018-03-04T00:46:51.014Z,0.00
2018-03-04T00:47:51.001Z,0.00
2018-03-04T00:48:51.035Z,0.00
2018-03-04T00:49:51.017Z,0.00
2018-03-04T00:50:50.971Z,0.00
2018-03-04T00:51:50.960Z,0.00
2018-03-04T00:52:50.948Z,0.00
2018-03-04T00:53:50.939Z,0.00
2018-03-04T00:54:50.969Z,0.00
2018-03-04T00:55:50.920Z,0.00
2018-03-04T00:56:50.909Z,0.00
2018-03-04T00:57:50.895Z,0.00
2018-03-04T00:58:50.886Z,0.00
2018-03-04T00:59:50.913Z,0.00
2018-03-04T01:00:50.863Z,0.00
2018-03-04T01:01:50.854Z,0.00
2018-03-04T01:02:50.846Z,0.00
2018-03-04T01:03:50.831Z,0.00
2018-03-04T01:04:50.861Z,0.00
2018-03-04T01:05:50.810Z,0.00
2018-03-04T01:06:50.799Z,0.00
2018-03-04T01:07:50.790Z,0.00
2018-03-04T01:08:50.778Z,0.00
2018-03-04T01:09:50.817Z,0.00
2018-03-04T01:10:50.761Z,0.00
2018-03-04T01:11:50.749Z,0.00
2018-03-04T01:12:50.739Z,0.00
2018-03-04T01:13:50.728Z,0.00
2018-03-04T01:14:50.755Z,0.00
2018-03-04T01:15:50.703Z,0.00
2018-03-04T01:16:50.701Z,0.00
2018-03-04T01:17:50.684Z,0.00
2018-03-04T01:18:50.674Z,0.00
2018-03-04T01:19:50.706Z,0.00
2018-03-04T01:20:50.657Z,0.00
2018-03-04T01:21:50.641Z,0.00
2018-03-04T01:22:50.634Z,0.00
2018-03-04T01:23:50.690Z,0.00
2018-03-04T01:24:50.612Z,0.00
2018-03-04T01:25:50.602Z,0.00
2018-03-04T01:26:50.593Z,0.00
2018-03-04T01:27:50.578Z,0.00
2018-03-04T01:28:50.571Z,0.00
2018-03-04T01:29:50.599Z,0.00
2018-03-04T01:30:50.548Z,0.00
2018-03-04T01:31:50.540Z,0.00
2018-03-04T01:32:50.528Z,0.00
2018-03-04T01:33:50.518Z,0.00
2018-03-04T01:34:50.571Z,0.00
2018-03-04T01:35:50.516Z,0.00
2018-03-04T01:36:50.494Z,0.00
2018-03-04T01:37:50.474Z,0.00
2018-03-04T01:38:50.463Z,0.00
2018-03-04T01:39:50.496Z,0.00
2018-03-04T01:40:50.442Z,0.00
2018-03-04T01:41:50.433Z,0.00
2018-03-04T01:42:50.423Z,0.00
2018-03-04T01:43:50.411Z,0.00
2018-03-04T01:44:50.438Z,0.00
2018-03-04T01:45:50.430Z,0.00
2018-03-04T01:46:50.376Z,0.00
2018-03-04T01:47:50.366Z,0.00
2018-03-04T01:48:50.359Z,0.00
2018-03-04T01:49:50.348Z,0.00
2018-03-04T01:50:50.380Z,0.00
2018-03-04T01:51:50.326Z,0.00
2018-03-04T01:52:50.315Z,0.00
2018-03-04T01:53:50.308Z,0.00
2018-03-04T01:54:50.340Z,0.00
2018-03-04T01:55:50.287Z,0.00
2018-03-04T01:56:50.272Z,0.00
2018-03-04T01:57:50.262Z,0.00
2018-03-04T01:58:50.254Z,0.00
2018-03-04T01:59:50.284Z,0.00
2018-03-04T02:00:50.230Z,0.00
2018-03-04T02:01:50.221Z,0.00
2018-03-04T02:02:50.214Z,0.00
2018-03-04T02:03:50.200Z,0.00
2018-03-04T02:04:50.234Z,0.00
2018-03-04T02:05:50.179Z,0.00
2018-03-04T02:06:50.166Z,0.00
2018-03-04T02:07:50.159Z,0.00
2018-03-04T02:08:50.173Z,0.00
2018-03-04T02:09:50.176Z,0.00
2018-03-04T02:10:50.171Z,0.00
2018-03-04T02:11:50.127Z,0.00
2018-03-04T02:12:50.107Z,0.00
2018-03-04T02:13:50.095Z,0.00
2018-03-04T02:14:50.090Z,0.00
2018-03-04T02:15:50.120Z,0.00
2018-03-04T02:16:50.066Z,0.00
2018-03-04T02:17:50.056Z,0.00
2018-03-04T02:18:50.044Z,0.00
2018-03-04T02:19:50.034Z,0.00
2018-03-04T02:20:50.069Z,0.00
2018-03-04T02:21:50.016Z,0.00
2018-03-04T02:22:50.004Z,0.00
2018-03-04T02:23:49.995Z,0.00
2018-03-04T02:24:49.982Z,0.00
2018-03-04T02:25:50.015Z,0.00
2018-03-04T02:26:49.964Z,0.00
2018-03-04T02:27:49.953Z,0.00
2018-03-04T02:28:49.947Z,0.00
2018-03-04T02:29:49.978Z,0.00
2018-03-04T02:30:49.968Z,0.00
2018-03-04T02:31:49.914Z,0.00
2018-03-04T02:32:49.911Z,0.00
2018-03-04T02:33:49.894Z,0.00
2018-03-04T02:34:49.885Z,0.00
2018-03-04T02:35:49.914Z,0.00
2018-03-04T02:36:49.866Z,0.00
2018-03-04T02:37:49.863Z,0.00
2018-03-04T02:38:49.856Z,0.00
2018-03-04T02:39:49.835Z,0.00
2018-03-04T02:40:49.869Z,0.00
2018-03-04T02:41:49.816Z,0.00
2018-03-04T02:42:49.806Z,0.00
2018-03-04T02:43:49.800Z,0.00
2018-03-04T02:44:49.789Z,0.00
2018-03-04T02:45:49.816Z,0.00
2018-03-04T02:46:49.770Z,0.00
2018-03-04T02:47:49.766Z,0.00
2018-03-04T02:48:49.750Z,0.00
2018-03-04T02:49:49.741Z,0.00
2018-03-04T02:50:49.775Z,0.00
2018-03-04T02:51:49.721Z,0.00
2018-03-04T02:52:49.713Z,0.00
2018-03-04T02:53:49.716Z,0.00
2018-03-04T02:54:49.703Z,0.00
2018-03-04T02:55:49.723Z,0.00
2018-03-04T02:56:49.713Z,0.00
2018-03-04T02:57:49.667Z,0.00
2018-03-04T02:58:49.654Z,0.00
2018-03-04T02:59:49.650Z,0.00
2018-03-04T03:00:49.641Z,0.00
2018-03-04T03:01:49.671Z,0.00
2018-03-04T03:02:49.617Z,0.00
2018-03-04T03:03:49.609Z,0.00
2018-03-04T03:04:49.604Z,0.00
2018-03-04T03:05:49.592Z,0.00
2018-03-04T03:06:49.622Z,0.00
2018-03-04T03:07:50.120Z,0.00
2018-03-04T03:08:50.301Z,0.00
2018-03-04T03:09:49.555Z,0.00
2018-03-04T03:10:49.544Z,0.00
2018-03-04T03:11:49.573Z,0.00
2018-03-04T03:12:49.526Z,0.00
2018-03-04T03:13:49.520Z,0.00
2018-03-04T03:14:49.510Z,0.00
2018-03-04T03:15:49.501Z,0.00
2018-03-04T03:16:49.535Z,0.00
2018-03-04T03:17:49.522Z,0.00
2018-03-04T03:18:49.472Z,0.00
2018-03-04T03:19:49.464Z,0.00
2018-03-04T03:20:49.493Z,0.00
2018-03-04T03:21:49.445Z,0.00
2018-03-04T03:22:49.473Z,0.00
2018-03-04T03:23:49.426Z,0.00
2018-03-04T03:24:49.421Z,0.00
2018-03-04T03:25:49.435Z,0.00
2018-03-04T03:26:49.468Z,0.00
2018-03-04T03:27:49.418Z,0.00
2018-03-04T03:28:49.409Z,0.00
2018-03-04T03:29:49.399Z,0.00
2018-03-04T03:30:49.396Z,0.00
2018-03-04T03:31:49.441Z,0.00
2018-03-04T03:32:49.372Z,0.00
2018-03-04T03:33:49.365Z,0.00
2018-03-04T03:34:49.358Z,0.00
2018-03-04T03:35:49.387Z,0.00
2018-03-04T03:36:49.341Z,0.00
2018-03-04T03:37:49.368Z,0.00
2018-03-04T03:38:49.321Z,0.00
2018-03-04T03:39:49.314Z,0.00
2018-03-04T03:40:49.304Z,0.00
2018-03-04T03:41:49.296Z,0.00
2018-03-04T03:42:49.346Z,0.00
2018-03-04T03:43:49.276Z,0.00
2018-03-04T03:44:49.270Z,0.00
2018-03-04T03:45:49.297Z,0.00
2018-03-04T03:46:49.249Z,0.00
2018-03-04T03:47:49.245Z,0.00
2018-03-04T03:48:49.273Z,0.00
2018-03-04T03:49:49.226Z,0.00
2018-03-04T03:50:49.217Z,0.00
2018-03-04T03:51:49.207Z,0.00
2018-03-04T03:52:49.204Z,0.00
2018-03-04T03:53:49.250Z,0.00
2018-03-04T03:54:49.181Z,0.00
2018-03-04T03:55:49.215Z,0.00
2018-03-04T03:56:49.167Z,0.00
2018-03-04T03:57:49.157Z,0.00
2018-03-04T03:58:49.152Z,0.00
2018-03-04T03:59:49.179Z,0.00
2018-03-04T04:00:49.130Z,0.00
2018-03-04T04:01:49.122Z,0.00
2018-03-04T04:02:49.113Z,0.00
2018-03-04T04:03:49.105Z,0.00
2018-03-04T04:04:49.140Z,0.00
2018-03-04T04:05:49.090Z,0.00
2018-03-04T04:06:49.081Z,0.00
2018-03-04T04:07:49.076Z,0.00
2018-03-04T04:08:49.066Z,0.00
2018-03-04T04:09:49.099Z,0.00
2018-03-04T04:10:49.049Z,0.00
2018-03-04T04:11:49.039Z,0.00
2018-03-04T04:12:49.034Z,0.00
2018-03-04T04:13:49.026Z,0.00
2018-03-04T04:14:49.055Z,0.00
2018-03-04T04:15:49.008Z,0.00
2018-03-04T04:16:49.004Z,0.00
2018-03-04T04:17:48.997Z,0.00
2018-03-04T04:18:48.984Z,0.00
2018-03-04T04:19:49.034Z,0.00
2018-03-04T04:20:48.969Z,0.00
2018-03-04T04:21:48.959Z,0.00
2018-03-04T04:22:48.950Z,0.00
2018-03-04T04:23:49.926Z,0.00
2018-03-04T04:24:48.975Z,0.00
2018-03-04T04:25:48.968Z,0.00
2018-03-04T04:26:48.919Z,0.00
2018-03-04T04:27:48.916Z,0.00
2018-03-04T04:28:48.902Z,0.00
2018-03-04T04:29:48.904Z,0.00
2018-03-04T04:30:48.927Z,0.00
2018-03-04T04:31:48.891Z,0.00
2018-03-04T04:32:48.874Z,0.00
2018-03-04T04:33:48.868Z,0.00
2018-03-04T04:34:48.862Z,0.00
2018-03-04T04:35:48.912Z,0.00
2018-03-04T04:36:48.843Z,0.00
2018-03-04T04:37:48.837Z,0.00
2018-03-04T04:38:48.827Z,0.00
2018-03-04T04:39:48.858Z,0.00
2018-03-04T04:40:48.852Z,0.00
2018-03-04T04:41:48.807Z,0.00
2018-03-04T04:42:49.646Z,0.00
2018-03-04T04:43:48.792Z,0.00
2018-03-04T04:44:48.786Z,0.00
2018-03-04T04:45:48.813Z,0.00
2018-03-04T04:46:48.770Z,0.00
2018-03-04T04:47:48.761Z,0.00
2018-03-04T04:48:48.756Z,0.00
2018-03-04T04:49:48.747Z,0.00
2018-03-04T04:50:48.778Z,0.00
2018-03-04T04:51:48.737Z,0.00
2018-03-04T04:52:48.724Z,0.00
2018-03-04T04:53:48.720Z,0.00
2018-03-04T04:54:48.710Z,0.00
2018-03-04T04:55:48.760Z,0.00
2018-03-04T04:56:48.697Z,0.00
2018-03-04T04:57:48.690Z,0.00
2018-03-04T04:58:48.679Z,0.00
2018-03-04T04:59:48.674Z,0.00
2018-03-04T05:00:48.704Z,0.00
2018-03-04T05:01:48.697Z,0.00
2018-03-04T05:02:49.416Z,0.00
2018-03-04T05:03:48.645Z,0.00
2018-03-04T05:04:48.635Z,0.00
2018-03-04T05:05:48.630Z,0.00
2018-03-04T05:06:48.661Z,0.00
2018-03-04T05:07:49.210Z,0.00
2018-03-04T05:08:48.609Z,0.00
2018-03-04T05:09:48.601Z,0.00
2018-03-04T05:10:48.593Z,0.00
2018-03-04T05:11:48.626Z,0.00
2018-03-04T05:12:48.583Z,0.00
2018-03-04T05:13:48.569Z,0.00
2018-03-04T05:14:48.562Z,0.00
2018-03-04T05:15:48.600Z,0.00
2018-03-04T05:16:48.550Z,0.00
2018-03-04T05:17:48.544Z,0.00
2018-03-04T05:18:48.954Z,0.00
2018-03-04T05:19:48.526Z,0.00
2018-03-04T05:20:48.558Z,0.00
2018-03-04T05:21:48.510Z,0.00
2018-03-04T05:22:48.507Z,0.00
2018-03-04T05:23:48.503Z,0.00
2018-03-04T05:24:48.502Z,0.00
2018-03-04T05:25:48.552Z,0.00
2018-03-04T05:26:48.478Z,0.00
2018-03-04T05:27:48.473Z,0.00
2018-03-04T05:28:48.462Z,0.00
2018-03-04T05:29:48.468Z,0.00
2018-03-04T05:30:48.486Z,0.00
2018-03-04T05:31:48.437Z,0.00
2018-03-04T05:32:48.431Z,0.00
2018-03-04T05:33:48.425Z,0.00
2018-03-04T05:34:48.414Z,0.00
2018-03-04T05:35:48.445Z,0.00
2018-03-04T05:36:48.401Z,0.00
2018-03-04T05:37:48.397Z,0.00
2018-03-04T05:38:48.392Z,0.00
2018-03-04T05:39:48.381Z,0.00
2018-03-04T05:40:48.456Z,0.00
2018-03-04T05:41:48.364Z,0.00
2018-03-04T05:42:48.430Z,0.00
2018-03-04T05:43:48.349Z,0.00
2018-03-04T05:44:48.342Z,5.63
2018-03-04T05:45:48.392Z,5.63
2018-03-04T05:46:48.327Z,5.63
2018-03-04T05:47:48.318Z,5.63
2018-03-04T05:48:48.311Z,5.63
2018-03-04T05:49:48.303Z,5.63
2018-03-04T05:50:48.336Z,5.63
2018-03-04T05:51:48.290Z,5.63
2018-03-04T05:52:48.287Z,11.25
2018-03-04T05:53:48.275Z,11.25
2018-03-04T05:54:48.314Z,11.25
2018-03-04T05:55:48.261Z,11.25
2018-03-04T05:56:48.252Z,11.25
2018-03-04T05:57:48.246Z,11.25
2018-03-04T05:58:48.236Z,16.88
2018-03-04T05:59:49.091Z,16.88
2018-03-04T06:00:48.225Z,16.88
2018-03-04T06:01:48.215Z,16.88
2018-03-04T06:02:48.208Z,16.88
2018-03-04T06:03:48.200Z,16.88
2018-03-04T06:04:48.229Z,16.88
2018-03-04T06:05:48.185Z,16.88
2018-03-04T06:06:48.178Z,16.88
2018-03-04T06:07:48.169Z,16.88
2018-03-04T06:08:48.164Z,16.88
2018-03-04T06:09:48.199Z,16.88
2018-03-04T06:10:48.160Z,16.88
2018-03-04T06:11:48.171Z,16.88
2018-03-04T06:12:48.140Z,22.50
2018-03-04T06:13:48.134Z,22.50
2018-03-04T06:14:48.197Z,22.50
2018-03-04T06:15:48.216Z,22.50
2018-03-04T06:16:49.041Z,22.50
2018-03-04T06:17:48.100Z,22.50
2018-03-04T06:18:48.146Z,22.50
2018-03-04T06:19:48.083Z,22.50
2018-03-04T06:20:48.121Z,22.50
2018-03-04T06:21:48.071Z,28.13
2018-03-04T06:22:48.060Z,28.13
2018-03-04T06:23:48.115Z,22.50
2018-03-04T06:24:48.117Z,28.13
2018-03-04T06:25:48.041Z,28.13
2018-03-04T06:26:48.032Z,28.13
2018-03-04T06:27:48.026Z,28.13
2018-03-04T06:28:48.020Z,28.13
2018-03-04T06:29:48.050Z,33.75
2018-03-04T06:30:48.003Z,33.75
2018-03-04T06:31:47.998Z,33.75
2018-03-04T06:32:47.995Z,33.75
2018-03-04T06:33:48.029Z,33.75
2018-03-04T06:34:47.975Z,33.75
2018-03-04T06:35:47.974Z,39.38
2018-03-04T06:36:47.964Z,39.38
2018-03-04T06:37:47.956Z,39.38
2018-03-04T06:38:47.991Z,45.00
2018-03-04T06:39:47.944Z,45.00
2018-03-04T06:40:47.933Z,45.00
2018-03-04T06:41:47.925Z,45.00
2018-03-04T06:42:47.922Z,45.00
2018-03-04T06:43:47.970Z,45.00
2018-03-04T06:44:47.966Z,45.00
2018-03-04T06:45:47.897Z,45.00
2018-03-04T06:46:47.897Z,45.00
2018-03-04T06:47:47.889Z,45.00
2018-03-04T06:48:47.882Z,50.63
2018-03-04T06:49:47.911Z,50.63
2018-03-04T06:50:47.864Z,56.25
2018-03-04T06:51:47.857Z,61.88
2018-03-04T06:52:47.851Z,67.50
2018-03-04T06:53:47.901Z,67.50
2018-03-04T06:54:47.875Z,67.50
2018-03-04T06:55:47.830Z,73.13
2018-03-04T06:56:47.862Z,78.75
2018-03-04T06:57:47.819Z,90.00
2018-03-04T06:58:47.809Z,95.63
2018-03-04T06:59:47.841Z,106.88
2018-03-04T07:00:47.795Z,106.88
2018-03-04T07:01:47.788Z,112.50
2018-03-04T07:02:47.782Z,123.75
2018-03-04T07:03:47.830Z,129.38
2018-03-04T07:04:47.807Z,129.38
2018-03-04T07:05:47.765Z,129.38
2018-03-04T07:06:47.756Z,123.75
2018-03-04T07:07:47.749Z,123.75
2018-03-04T07:08:47.780Z,123.75
2018-03-04T07:09:47.731Z,123.75
2018-03-04T07:10:47.724Z,123.75
2018-03-04T07:11:47.722Z,129.38
2018-03-04T07:12:47.714Z,135.00
2018-03-04T07:13:47.763Z,146.25
2018-03-04T07:14:47.740Z,157.50
2018-03-04T07:15:47.696Z,168.75
2018-03-04T07:16:47.703Z,180.00
2018-03-04T07:17:47.678Z,185.63
2018-03-04T07:18:47.769Z,191.25
2018-03-04T07:19:47.701Z,196.88
2018-03-04T07:20:47.661Z,202.50
2018-03-04T07:21:47.654Z,208.13
2018-03-04T07:22:47.680Z,219.38
2018-03-04T07:23:47.643Z,225.00
2018-03-04T07:24:47.729Z,230.63
2018-03-04T07:25:47.632Z,230.63
2018-03-04T07:26:47.620Z,236.25
2018-03-04T07:27:47.619Z,241.88
2018-03-04T07:28:47.605Z,247.50
2018-03-04T07:29:47.658Z,253.13
2018-03-04T07:30:47.688Z,258.75
2018-03-04T07:31:47.589Z,258.75
2018-03-04T07:32:48.127Z,258.75
2018-03-04T07:33:47.577Z,264.38
2018-03-04T07:34:47.613Z,270.00
2018-03-04T07:35:47.583Z,270.00
2018-03-04T07:36:47.562Z,270.00
2018-03-04T07:37:47.552Z,264.38
2018-03-04T07:38:47.548Z,264.38
2018-03-04T07:39:47.580Z,270.00
2018-03-04T07:40:47.537Z,264.38
2018-03-04T07:41:47.531Z,258.75
2018-03-04T07:42:47.525Z,247.50
2018-03-04T07:43:47.524Z,236.25
2018-03-04T07:44:47.570Z,236.25
2018-03-04T07:45:47.508Z,241.88
2018-03-04T07:46:47.502Z,253.13
2018-03-04T07:47:47.496Z,275.63
2018-03-04T07:48:47.491Z,309.38
2018-03-04T07:49:47.488Z,354.38
2018-03-04T07:50:47.521Z,382.50
2018-03-04T07:51:47.480Z,416.25
2018-03-04T07:52:47.475Z,478.13
2018-03-04T07:53:47.467Z,534.38
2018-03-04T07:54:47.467Z,573.75
2018-03-04T07:55:47.511Z,601.88
2018-03-04T07:56:47.492Z,607.50
2018-03-04T07:57:47.445Z,635.63
2018-03-04T07:58:47.443Z,658.13
2018-03-04T07:59:47.475Z,663.75
2018-03-04T08:00:47.471Z,669.38
2018-03-04T08:01:47.469Z,669.38
2018-03-04T08:02:47.983Z,669.38
2018-03-04T08:03:47.415Z,652.50
2018-03-04T08:04:47.410Z,630.00
2018-03-04T08:05:47.406Z,646.88
2018-03-04T08:06:47.458Z,691.88
2018-03-04T08:07:47.403Z,753.75
2018-03-04T08:08:47.394Z,770.63
2018-03-04T08:09:47.391Z,821.25
2018-03-04T08:10:47.421Z,900.00
2018-03-04T08:11:47.418Z,950.63
2018-03-04T08:12:47.427Z,911.25
2018-03-04T08:13:47.379Z,939.38
2018-03-04T08:14:47.373Z,933.75
2018-03-04T08:15:48.171Z,888.75
2018-03-04T08:16:47.368Z,871.88
2018-03-04T08:17:47.409Z,860.63
2018-03-04T08:18:47.369Z,765.00
2018-03-04T08:19:47.357Z,686.25
2018-03-04T08:20:47.356Z,652.50
2018-03-04T08:21:47.357Z,585.00
2018-03-04T08:22:47.422Z,534.38
2018-03-04T08:23:47.363Z,495.00
2018-03-04T08:24:47.345Z,517.50
2018-03-04T08:25:47.401Z,472.50
2018-03-04T08:26:47.341Z,478.13
2018-03-04T08:27:47.337Z,590.63
2018-03-04T08:28:47.339Z,579.38
2018-03-04T08:29:47.336Z,613.13
2018-03-04T08:30:47.370Z,556.88
2018-03-04T08:31:47.330Z,635.63
2018-03-04T08:32:47.370Z,691.88
2018-03-04T08:33:47.323Z,686.25
2018-03-04T08:34:47.319Z,669.38
2018-03-04T08:35:47.316Z,658.13
2018-03-04T08:36:47.313Z,658.13
2018-03-04T08:37:47.371Z,669.38
2018-03-04T08:38:47.309Z,680.63
2018-03-04T08:39:47.303Z,742.50
2018-03-04T08:40:47.340Z,748.13
2018-03-04T08:41:47.300Z,708.75
2018-03-04T08:42:47.294Z,658.13
2018-03-04T08:43:47.331Z,714.38
2018-03-04T08:44:47.289Z,680.63
2018-03-04T08:45:47.292Z,646.88
2018-03-04T08:46:47.286Z,731.25
2018-03-04T08:47:47.281Z,646.88
2018-03-04T08:48:47.316Z,787.50
2018-03-04T08:49:47.274Z,742.50
2018-03-04T08:50:47.285Z,860.63
2018-03-04T08:51:47.272Z,950.63
2018-03-04T08:52:47.271Z,888.75
2018-03-04T08:53:47.305Z,1096.88
2018-03-04T08:54:47.263Z,1102.50
2018-03-04T08:55:47.261Z,1113.75
2018-03-04T08:56:47.263Z,1102.50
2018-03-04T08:57:47.266Z,1141.88
2018-03-04T08:58:47.307Z,1305.00
2018-03-04T08:59:47.255Z,1445.63
2018-03-04T09:00:47.255Z,1496.25
2018-03-04T09:01:47.254Z,1552.50
2018-03-04T09:02:47.252Z,1850.63
2018-03-04T09:03:47.310Z,1805.63
2018-03-04T09:04:47.256Z,1816.88
2018-03-04T09:05:47.253Z,1951.88
2018-03-04T09:06:47.903Z,1766.25
2018-03-04T09:07:47.311Z,2019.38
2018-03-04T09:08:47.257Z,1850.63
2018-03-04T09:09:47.257Z,1805.63
2018-03-04T09:10:47.265Z,1057.50
2018-03-04T09:11:47.265Z,1991.25
2018-03-04T09:12:47.267Z,1985.63
2018-03-04T09:13:47.309Z,2098.13
2018-03-04T09:14:47.281Z,1822.50
2018-03-04T09:15:47.279Z,1878.75
2018-03-04T09:16:47.287Z,1839.38
2018-03-04T09:17:47.289Z,1670.63
2018-03-04T09:18:47.334Z,1513.13
2018-03-04T09:19:47.316Z,1732.50
2018-03-04T09:20:47.305Z,1895.63
2018-03-04T09:21:47.309Z,1788.75
2018-03-04T09:22:47.316Z,1923.75
2018-03-04T09:23:47.376Z,1861.88
2018-03-04T09:24:47.325Z,1805.63
2018-03-04T09:25:47.328Z,1974.38
2018-03-04T09:26:47.372Z,1800.00
2018-03-04T09:27:47.338Z,1794.38
2018-03-04T09:28:47.346Z,1783.13
2018-03-04T09:29:47.402Z,1884.38
2018-03-04T09:30:47.361Z,1935.00
2018-03-04T09:31:47.371Z,2058.75
2018-03-04T09:32:47.788Z,1878.75
2018-03-04T09:33:47.377Z,1833.75
2018-03-04T09:34:47.423Z,1873.13
2018-03-04T09:35:47.392Z,1923.75
2018-03-04T09:36:47.402Z,1771.88
2018-03-04T09:37:47.419Z,1918.13
2018-03-04T09:38:47.416Z,2064.38
2018-03-04T09:39:47.467Z,1794.38
2018-03-04T09:40:47.434Z,2002.50
2018-03-04T09:41:47.442Z,2086.88
2018-03-04T09:42:47.448Z,2058.75
2018-03-04T09:43:47.456Z,2160.00
2018-03-04T09:44:47.507Z,1946.25
2018-03-04T09:45:47.506Z,1980.00
2018-03-04T09:46:47.482Z,2188.13
2018-03-04T09:47:47.490Z,2041.88
2018-03-04T09:48:47.497Z,2160.00
2018-03-04T09:49:47.544Z,2165.63
2018-03-04T09:50:47.512Z,2143.13
2018-03-04T09:51:47.522Z,2126.25
2018-03-04T09:52:47.528Z,2244.38
2018-03-04T09:53:47.539Z,2261.25
2018-03-04T09:54:47.602Z,2306.25
2018-03-04T09:55:47.552Z,1788.75
2018-03-04T09:56:47.616Z,1670.63
2018-03-04T09:57:47.582Z,2238.75
2018-03-04T09:58:47.579Z,1681.88
2018-03-04T09:59:47.585Z,1485.00
2018-03-04T10:00:47.627Z,1473.75
2018-03-04T10:01:47.600Z,1648.13
2018-03-04T10:02:47.607Z,1530.00
2018-03-04T10:03:47.614Z,1411.88
2018-03-04T10:04:47.619Z,1395.00
2018-03-04T10:05:47.665Z,1338.75
2018-03-04T10:06:47.632Z,1316.25
2018-03-04T10:07:47.635Z,1316.25
2018-03-04T10:08:47.663Z,1338.75
2018-03-04T10:09:47.645Z,1372.50
2018-03-04T10:10:47.706Z,1428.75
2018-03-04T10:11:47.650Z,1530.00
2018-03-04T10:12:47.658Z,1552.50
2018-03-04T10:13:47.657Z,1456.88
2018-03-04T10:14:47.661Z,1490.63
2018-03-04T10:15:47.705Z,1473.75
2018-03-04T10:16:47.668Z,1890.00
2018-03-04T10:17:47.671Z,1996.88
2018-03-04T10:18:47.673Z,1985.63
2018-03-04T10:19:47.679Z,1811.25
2018-03-04T10:20:47.720Z,1440.00
2018-03-04T10:21:47.685Z,1631.25
2018-03-04T10:22:47.690Z,1580.63
2018-03-04T10:23:47.692Z,1518.75
2018-03-04T10:24:47.699Z,1755.00
2018-03-04T10:25:47.758Z,1811.25
2018-03-04T10:26:47.705Z,2053.13
2018-03-04T10:27:47.711Z,2806.88
2018-03-04T10:28:47.712Z,2812.50
2018-03-04T10:29:47.718Z,2790.00
2018-03-04T10:30:47.782Z,2295.00
2018-03-04T10:31:47.731Z,2098.13
2018-03-04T10:32:47.733Z,3003.75
2018-03-04T10:33:47.741Z,2851.88
2018-03-04T10:34:47.749Z,1788.75
2018-03-04T10:35:47.815Z,1597.50
2018-03-04T10:36:47.762Z,1293.75
2018-03-04T10:37:47.766Z,1254.38
2018-03-04T10:38:47.778Z,1243.13
2018-03-04T10:39:47.782Z,1243.13
2018-03-04T10:40:47.825Z,1248.75
2018-03-04T10:41:47.835Z,1243.13
2018-03-04T10:42:47.796Z,1231.88
2018-03-04T10:43:47.801Z,1226.25
2018-03-04T10:44:47.809Z,1215.00
2018-03-04T10:45:47.810Z,1209.38
2018-03-04T10:46:47.869Z,1203.75
2018-03-04T10:47:47.816Z,1192.50
2018-03-04T10:48:47.826Z,1186.88
2018-03-04T10:49:47.828Z,1170.00
2018-03-04T10:50:47.865Z,1158.75
2018-03-04T10:51:47.827Z,1147.50
2018-03-04T10:52:47.829Z,1147.50
2018-03-04T10:53:47.835Z,1153.13
2018-03-04T10:54:47.833Z,1153.13
2018-03-04T10:55:47.879Z,1153.13
2018-03-04T10:56:47.837Z,1164.38
2018-03-04T10:57:47.837Z,1164.38
2018-03-04T10:58:47.839Z,1170.00
2018-03-04T10:59:47.840Z,1164.38
2018-03-04T11:00:47.880Z,1164.38
2018-03-04T11:01:47.845Z,1164.38
2018-03-04T11:02:47.843Z,1153.13
2018-03-04T11:03:47.843Z,1136.25
2018-03-04T11:04:47.845Z,1113.75
2018-03-04T11:05:47.902Z,1096.88
2018-03-04T11:06:48.778Z,1085.63
2018-03-04T11:07:47.845Z,1074.38
2018-03-04T11:08:47.849Z,1074.38
2018-03-04T11:09:47.900Z,1080.00
2018-03-04T11:10:47.893Z,1085.63
2018-03-04T11:11:47.849Z,1096.88
2018-03-04T11:12:47.848Z,1113.75
2018-03-04T11:13:47.853Z,1147.50
2018-03-04T11:14:47.852Z,1215.00
2018-03-04T11:15:48.070Z,1293.75
2018-03-04T11:16:47.854Z,1383.75
2018-03-04T11:17:47.855Z,1456.88
2018-03-04T11:18:47.854Z,1468.13
2018-03-04T11:19:47.853Z,1428.75
2018-03-04T11:20:48.509Z,1530.00
2018-03-04T11:21:47.857Z,1693.13
2018-03-04T11:22:47.864Z,1575.00
2018-03-04T11:23:47.861Z,1771.88
2018-03-04T11:24:47.872Z,1839.38
2018-03-04T11:25:47.899Z,1867.50
2018-03-04T11:26:47.864Z,1991.25
2018-03-04T11:27:47.870Z,1428.75
2018-03-04T11:28:47.917Z,1243.13
2018-03-04T11:29:47.872Z,1215.00
2018-03-04T11:30:47.915Z,1293.75
2018-03-04T11:31:47.878Z,1406.25
2018-03-04T11:32:47.881Z,1456.88
2018-03-04T11:33:47.885Z,1479.38
2018-03-04T11:34:47.888Z,1372.50
2018-03-04T11:35:47.935Z,1338.75
2018-03-04T11:36:47.897Z,1333.13
2018-03-04T11:37:47.899Z,1327.50
2018-03-04T11:38:47.901Z,1344.38
2018-03-04T11:39:47.907Z,1406.25
2018-03-04T11:40:47.959Z,1479.38
2018-03-04T11:41:47.910Z,1569.38
2018-03-04T11:42:47.941Z,1597.50
2018-03-04T11:43:47.915Z,1496.25
2018-03-04T11:44:47.923Z,1395.00
2018-03-04T11:45:47.923Z,1293.75
2018-03-04T11:46:47.963Z,1260.00
2018-03-04T11:47:47.932Z,1243.13
2018-03-04T11:48:47.934Z,1260.00
2018-03-04T11:49:47.937Z,1316.25
2018-03-04T11:50:47.940Z,1406.25
2018-03-04T11:51:47.982Z,1485.00
2018-03-04T11:52:47.946Z,1451.25
2018-03-04T11:53:48.363Z,1473.75
2018-03-04T11:54:47.954Z,1490.63
2018-03-04T11:55:47.956Z,1586.25
2018-03-04T11:56:47.999Z,1693.13
2018-03-04T11:57:47.962Z,1586.25
2018-03-04T11:58:47.965Z,1805.63
2018-03-04T11:59:47.968Z,1625.63
2018-03-04T12:00:47.971Z,1676.25
2018-03-04T12:01:48.041Z,1524.38
2018-03-04T12:02:47.980Z,1372.50
2018-03-04T12:03:47.986Z,1350.00
2018-03-04T12:04:47.989Z,1372.50
2018-03-04T12:05:47.994Z,1473.75
2018-03-04T12:06:48.041Z,1693.13
2018-03-04T12:07:48.044Z,2030.63
2018-03-04T12:08:48.008Z,2131.88
2018-03-04T12:09:48.013Z,1507.50
2018-03-04T12:10:48.017Z,1411.88
2018-03-04T12:11:48.023Z,1209.38
2018-03-04T12:12:48.071Z,1130.63
2018-03-04T12:13:48.033Z,1141.88
2018-03-04T12:14:48.041Z,1181.25
2018-03-04T12:15:48.043Z,1260.00
2018-03-04T12:16:48.048Z,1400.63
2018-03-04T12:17:48.109Z,1507.50
2018-03-04T12:18:48.058Z,1434.38
2018-03-04T12:19:48.060Z,1248.75
2018-03-04T12:20:48.126Z,1203.75
2018-03-04T12:21:48.070Z,1293.75
2018-03-04T12:22:48.083Z,1530.00
2018-03-04T12:23:48.076Z,1631.25
2018-03-04T12:24:48.082Z,1558.13
2018-03-04T12:25:48.124Z,1496.25
2018-03-04T12:26:48.089Z,1417.50
2018-03-04T12:27:48.130Z,1456.88
2018-03-04T12:28:48.100Z,1524.38
2018-03-04T12:29:48.101Z,1563.75
2018-03-04T12:30:48.115Z,1878.75
2018-03-04T12:31:48.108Z,2008.13
2018-03-04T12:32:48.172Z,2565.00
2018-03-04T12:33:48.120Z,2683.13
2018-03-04T12:34:48.124Z,2919.38
2018-03-04T12:35:48.185Z,3116.25
2018-03-04T12:36:48.137Z,2964.38
2018-03-04T12:37:48.144Z,2756.25
2018-03-04T12:38:48.150Z,2413.13
2018-03-04T12:39:48.158Z,2401.88
2018-03-04T12:40:48.221Z,2205.00
2018-03-04T12:41:48.174Z,2227.50
2018-03-04T12:42:48.179Z,2160.00
2018-03-04T12:43:48.191Z,2165.63
2018-03-04T12:44:48.241Z,2306.25
2018-03-04T12:45:48.209Z,2469.38